createdAt,value
2022-09-02T00:02:28.887Z,100442.63
2022-09-02T00:05:08.923Z,100445.44
2022-09-02T00:07:55.732Z,100443.44
2022-09-02T00:10:42.786Z,100444.25
2022-09-02T00:13:29.773Z,100452.31
2022-09-02T00:16:11.583Z,100458.72
2022-09-02T00:18:59.744Z,100453.88
2022-09-02T00:21:41.873Z,100457.94
2022-09-02T00:24:29.753Z,100458.34
2022-09-02T00:27:16.757Z,100459.16
2022-09-02T00:30:03.828Z,100448.72
2022-09-02T00:32:43.723Z,100454.75
2022-09-02T00:35:30.702Z,100454.34
2022-09-02T00:38:11.841Z,100447.94
2022-09-02T00:40:58.710Z,100448.34
2022-09-02T00:43:49.817Z,100445.97
2022-09-02T00:46:39.697Z,100447.16
2022-09-02T00:49:32.756Z,100443.16
2022-09-02T00:52:24.139Z,100445.97
2022-09-02T00:55:31.703Z,100443.59
2022-09-02T00:58:32.797Z,100444.38
2022-09-02T01:01:12.836Z,100450.00
2022-09-02T01:04:00.825Z,100437.94
2022-09-02T01:06:41.665Z,100439.56
2022-09-02T01:09:22.474Z,100439.56
2022-09-02T01:12:09.690Z,100451.22
2022-09-02T01:14:50.674Z,100443.16
2022-09-02T01:17:40.697Z,100445.13
2022-09-02T01:20:31.673Z,100443.09
2022-09-02T01:23:12.829Z,100449.94
2022-09-02T01:25:59.648Z,100447.50
2022-09-02T01:28:53.696Z,100453.53
2022-09-02T01:31:41.710Z,100453.53
2022-09-02T01:34:29.683Z,100449.56
2022-09-02T01:37:10.568Z,100443.56
2022-09-02T01:39:58.677Z,100435.94
2022-09-02T01:42:39.960Z,100433.56
2022-09-02T01:45:27.667Z,100435.97
2022-09-02T01:48:09.321Z,100440.81
2022-09-02T01:50:59.662Z,100438.78
2022-09-02T01:53:40.032Z,100441.19
2022-09-02T01:56:26.664Z,100435.97
2022-09-02T01:59:09.634Z,100437.56
2022-09-02T02:01:56.695Z,100427.50
2022-09-02T02:04:44.629Z,100429.09
2022-09-02T02:07:31.673Z,100431.09
2022-09-02T02:10:12.818Z,100428.66
2022-09-02T02:13:00.591Z,100421.44
2022-09-02T02:15:53.664Z,100419.78
2022-09-02T02:18:34.117Z,100416.19
2022-09-02T02:21:20.738Z,100421.41
2022-09-02T02:24:01.399Z,100418.59
2022-09-02T02:26:49.572Z,100416.56
2022-09-02T02:29:36.602Z,100414.53
2022-09-02T02:32:26.565Z,100408.13
2022-09-02T02:35:14.609Z,100418.53
2022-09-02T02:38:03.663Z,100417.34
2022-09-02T02:40:50.634Z,100408.91
2022-09-02T02:43:39.591Z,100408.13
2022-09-02T02:46:27.627Z,100404.50
2022-09-02T02:49:15.596Z,100411.72
2022-09-02T02:51:56.038Z,100408.53
2022-09-02T02:54:43.564Z,100397.25
2022-09-02T02:57:30.582Z,100403.28
2022-09-02T03:00:30.620Z,100405.28
2022-09-02T03:03:17.573Z,100407.66
2022-09-02T03:26:01.021Z,100413.03
2022-09-02T03:28:51.084Z,100414.59
2022-09-02T03:31:41.100Z,100409.34
2022-09-02T03:34:28.046Z,100418.94
2022-09-02T03:37:17.045Z,100420.13
2022-09-02T03:39:57.450Z,100421.34
2022-09-02T03:42:45.035Z,100421.28
2022-09-02T03:45:29.356Z,100420.47
2022-09-02T03:48:19.025Z,100423.69
2022-09-02T03:50:59.434Z,100420.44
2022-09-02T03:53:46.023Z,100429.28
2022-09-02T03:56:26.566Z,100423.63
2022-09-02T03:59:07.025Z,100419.59
2022-09-02T04:01:47.299Z,100422.38
2022-09-02T04:04:33.980Z,100428.00
2022-09-02T04:07:21.042Z,100419.53
2022-09-02T04:10:03.008Z,100427.53
2022-09-02T04:12:50.989Z,100423.09
2022-09-02T04:15:31.114Z,100426.28
2022-09-02T04:18:19.015Z,100432.25
2022-09-02T04:21:00.145Z,100427.81
2022-09-02T04:23:56.005Z,100424.00
2022-09-02T04:26:37.094Z,100418.28
2022-09-02T04:29:32.981Z,100422.47
2022-09-02T04:32:19.996Z,100432.25
2022-09-02T04:35:00.094Z,100426.78
2022-09-02T04:37:47.973Z,100430.03
2022-09-02T04:40:35.083Z,100433.34
2022-09-02T04:43:15.509Z,100433.88
2022-09-02T04:46:03.025Z,100440.16
2022-09-02T04:48:50.967Z,100434.38
2022-09-02T04:51:39.964Z,100422.53
2022-09-02T04:54:20.328Z,100447.66
2022-09-02T04:57:10.928Z,100437.47
2022-09-02T04:59:51.404Z,100439.56
2022-09-02T05:02:38.983Z,100427.63
2022-09-02T05:05:19.575Z,100437.28
2022-09-02T05:08:05.954Z,100433.84
2022-09-02T05:10:48.359Z,100443.59
2022-09-02T05:13:34.966Z,100436.28
2022-09-02T05:16:17.067Z,100442.78
2022-09-02T05:19:05.942Z,100448.44
2022-09-02T05:21:51.187Z,100452.22
2022-09-02T05:24:42.923Z,100450.94
2022-09-02T05:27:23.648Z,100446.44
2022-09-02T05:30:14.936Z,100446.50
2022-09-02T05:32:55.476Z,100453.19
2022-09-02T05:35:45.399Z,100439.66
2022-09-02T05:38:33.929Z,100435.78
2022-09-02T05:41:17.418Z,100446.09
2022-09-02T05:44:07.920Z,100438.50
2022-09-02T05:46:54.915Z,100450.44
2022-09-02T05:49:41.917Z,100447.03
2022-09-02T05:52:23.110Z,100443.59
2022-09-02T05:55:10.897Z,100447.34
2022-09-02T05:57:51.032Z,100454.78
2022-09-02T06:00:37.865Z,100456.59
2022-09-02T06:03:25.918Z,100456.50
2022-09-02T06:06:13.903Z,100456.94
2022-09-02T06:08:53.993Z,100452.59
2022-09-02T06:11:41.913Z,100466.66
2022-09-02T06:14:30.912Z,100458.41
2022-09-02T06:17:18.861Z,100467.13
2022-09-02T06:20:00.031Z,100468.34
2022-09-02T06:22:47.884Z,100474.00
2022-09-02T06:25:35.961Z,100474.66
2022-09-02T06:28:16.858Z,100475.38
2022-09-02T06:31:04.945Z,100465.69
2022-09-02T06:33:45.056Z,100480.63
2022-09-02T06:36:36.892Z,100486.13
2022-09-02T06:39:21.120Z,100485.75
2022-09-02T06:42:09.847Z,100482.72
2022-09-02T06:45:15.863Z,100482.50
2022-09-02T06:48:02.868Z,100498.47
2022-09-02T06:50:48.969Z,100491.34
2022-09-02T06:53:35.843Z,100481.38
2022-09-02T06:56:16.015Z,100489.47
2022-09-02T06:59:03.859Z,100490.81
2022-09-02T07:02:07.962Z,100497.72
2022-09-02T07:05:06.870Z,100481.97
2022-09-02T07:07:58.812Z,100490.41
2022-09-02T07:10:47.848Z,100500.56
2022-09-02T07:13:28.934Z,100497.03
2022-09-02T07:16:15.838Z,100493.09
2022-09-02T07:19:17.366Z,100490.44
2022-09-02T07:22:09.067Z,100489.03
2022-09-02T07:24:50.813Z,100488.56
2022-09-02T07:27:41.920Z,100492.25
2022-09-02T07:30:21.794Z,100485.34
2022-09-02T07:33:20.820Z,100516.06
2022-09-02T07:36:01.956Z,100487.34
2022-09-02T07:38:49.816Z,100486.31
2022-09-02T07:41:32.004Z,100493.59
2022-09-02T07:44:19.786Z,100472.28
2022-09-02T07:46:59.897Z,100487.00
2022-09-02T07:52:50.576Z,100487.22
2022-09-02T07:55:41.763Z,100490.50
2022-09-02T07:58:32.416Z,100500.63
2022-09-02T08:01:23.339Z,100490.59
2022-09-02T08:04:10.792Z,100503.38
2022-09-02T08:06:52.939Z,100495.31
2022-09-02T08:09:39.871Z,100501.28
2022-09-02T08:12:22.244Z,100507.25
2022-09-02T08:15:09.792Z,100511.53
2022-09-02T08:17:50.497Z,100514.28
2022-09-02T08:20:37.760Z,100536.72
2022-09-02T08:23:35.616Z,100516.19
2022-09-02T08:26:24.743Z,100505.84
2022-09-02T08:29:06.533Z,100504.03
2022-09-02T08:31:54.255Z,100507.59
2022-09-02T08:34:34.343Z,100516.53
2022-09-02T08:37:20.732Z,100499.78
2022-09-02T08:40:06.483Z,100490.28
2022-09-02T08:43:09.777Z,100499.84
2022-09-02T08:45:57.775Z,100493.31
2022-09-02T08:49:04.753Z,100491.47
2022-09-02T08:51:53.464Z,100492.31
2022-09-02T08:55:02.729Z,100488.56
2022-09-02T08:57:45.558Z,100487.59
2022-09-02T09:00:32.744Z,100484.25
2022-09-02T09:03:30.876Z,100495.66
2022-09-02T09:06:38.741Z,100494.53
2022-09-02T09:09:37.700Z,100487.56
2022-09-02T09:13:10.697Z,100506.66
2022-09-02T09:16:20.175Z,100506.28
2022-09-02T09:19:14.702Z,100487.22
2022-09-02T09:22:00.729Z,100494.75
2022-09-02T09:24:54.684Z,100493.47
2022-09-02T09:27:41.719Z,100494.88
2022-09-02T09:30:28.687Z,100497.09
2022-09-02T09:33:17.383Z,100484.84
2022-09-02T09:36:10.694Z,100481.06
2022-09-02T09:38:54.120Z,100472.03
2022-09-02T09:41:40.696Z,100477.69
2022-09-02T09:44:50.637Z,100474.69
2022-09-02T09:47:39.697Z,100469.53
2022-09-02T09:50:20.269Z,100484.66
2022-09-02T09:53:08.654Z,100464.06
2022-09-02T09:56:04.694Z,100456.28
2022-09-02T09:58:54.671Z,100463.56
2022-09-02T10:01:42.677Z,100471.09
2022-09-02T10:04:43.390Z,100442.50
2022-09-02T10:07:49.644Z,100437.72
2022-09-02T10:10:39.632Z,100434.19
2022-09-02T10:13:31.673Z,100427.50
2022-09-02T10:16:27.732Z,100410.66
2022-09-02T10:19:30.379Z,100404.03
2022-09-02T10:22:41.675Z,100410.63
2022-09-02T10:26:02.748Z,100399.81
2022-09-02T10:28:52.640Z,100402.88
2022-09-02T10:31:49.132Z,100400.06
2022-09-02T10:34:41.606Z,100408.66
2022-09-02T10:37:31.648Z,100382.44
2022-09-02T10:40:16.779Z,100397.88
2022-09-02T10:43:13.591Z,100404.84
2022-09-02T10:45:56.239Z,100401.66
2022-09-02T10:49:12.600Z,100406.47
2022-09-02T10:52:05.548Z,100402.78
2022-09-02T10:55:22.574Z,100411.03
2022-09-02T10:58:16.625Z,100407.28
2022-09-02T11:01:03.807Z,100421.56
2022-09-02T11:03:54.762Z,100413.81
2022-09-02T11:07:05.807Z,100418.31
2022-09-02T11:10:02.626Z,100429.88
2022-09-02T11:13:07.536Z,100432.16
2022-09-02T11:16:18.709Z,100427.97
2022-09-02T11:19:19.554Z,100416.13
2022-09-02T11:22:14.568Z,100425.97
2022-09-02T11:25:13.565Z,100411.19
2022-09-02T11:28:23.598Z,100421.88
2022-09-02T11:31:25.567Z,100411.69
2022-09-02T11:34:23.561Z,100419.53
2022-09-02T11:37:25.303Z,100412.53
2022-09-02T11:40:36.284Z,100408.19
2022-09-02T11:43:35.154Z,100380.97
2022-09-02T11:47:14.546Z,100399.56
2022-09-02T11:50:03.554Z,100389.53
2022-09-02T11:53:07.667Z,100391.56
2022-09-02T11:56:05.587Z,100386.28
2022-09-02T11:58:49.599Z,100381.09
2022-09-02T12:01:45.553Z,100401.16
2022-09-02T12:07:35.544Z,100378.31
2022-09-02T12:10:22.575Z,100385.91
2022-09-02T12:13:10.536Z,100392.63
2022-09-02T12:15:57.565Z,100350.31
2022-09-02T12:18:38.399Z,100355.50
2022-09-02T12:21:31.527Z,100367.16
2022-09-02T12:24:27.517Z,100369.72
2022-09-02T12:27:16.622Z,100365.03
2022-09-02T12:29:57.591Z,100368.59
2022-09-02T12:32:48.739Z,100386.56
2022-09-02T12:36:04.484Z,100372.03
2022-09-02T12:38:51.507Z,100392.41
2022-09-02T12:41:36.630Z,100387.59
2022-09-02T12:44:48.516Z,100399.13
2022-09-02T12:47:53.521Z,100393.72
2022-09-02T12:50:57.298Z,100381.09
2022-09-02T12:53:53.462Z,100378.03
2022-09-02T12:56:34.107Z,100375.94
2022-09-02T12:59:20.482Z,100367.44
2022-09-02T13:02:30.312Z,100338.34
2022-09-02T13:05:25.578Z,100341.81
2022-09-02T13:08:31.489Z,100357.75
2022-09-02T13:11:43.468Z,100342.41
2022-09-02T13:14:29.595Z,100344.00
2022-09-02T13:17:38.461Z,100345.38
2022-09-02T13:20:40.992Z,100338.00
2022-09-02T13:23:55.532Z,100335.81
2022-09-02T13:26:50.358Z,100329.19
2022-09-02T13:29:52.478Z,100325.13
2022-09-02T13:32:40.471Z,100313.03
2022-09-02T13:35:34.474Z,100318.13
2022-09-02T13:38:16.514Z,100326.28
2022-09-02T13:41:06.439Z,100323.47
2022-09-02T13:43:46.878Z,100312.31
2022-09-02T13:46:33.479Z,100304.59
2022-09-02T13:49:26.843Z,100301.94
2022-09-02T13:52:17.078Z,100309.88
2022-09-02T13:55:00.026Z,100312.56
2022-09-02T13:57:46.413Z,100314.66
2022-09-02T14:00:37.599Z,100315.63
2022-09-02T14:03:28.554Z,100325.75
2022-09-02T14:06:10.047Z,100323.44
2022-09-02T14:08:58.429Z,100321.78
2022-09-02T14:11:46.227Z,100306.78
2022-09-02T14:14:37.406Z,100301.69
2022-09-02T14:17:35.809Z,100290.31
2022-09-02T14:20:23.421Z,100283.50
2022-09-02T14:23:11.397Z,100298.88
2022-09-02T14:26:10.399Z,100283.53
2022-09-02T14:28:58.365Z,100287.38
2022-09-02T14:31:45.425Z,100296.56
2022-09-02T14:34:34.800Z,100293.75
2022-09-02T14:37:33.370Z,100306.94
2022-09-02T14:40:20.411Z,100336.97
2022-09-02T14:43:00.498Z,100325.66
2022-09-02T14:45:53.432Z,100329.91
2022-09-02T14:48:33.511Z,100334.97
2022-09-02T14:51:20.416Z,100343.13
2022-09-02T14:54:00.577Z,100348.19
2022-09-02T14:57:00.353Z,100342.59
2022-09-02T14:59:40.519Z,100341.72
2022-09-02T15:02:34.349Z,100341.44
2022-09-02T15:05:25.413Z,100332.81
2022-09-02T15:08:12.349Z,100344.03
2022-09-02T15:10:52.597Z,100346.09
2022-09-02T15:27:59.334Z,100332.69
2022-09-02T15:30:40.210Z,100310.63
2022-09-02T15:33:27.317Z,100309.09
2022-09-02T15:36:16.381Z,100308.38
2022-09-02T15:38:56.457Z,100302.66
2022-09-02T15:41:44.318Z,100285.19
2022-09-02T15:44:28.471Z,100310.53
2022-09-02T15:47:15.308Z,100319.06
2022-09-02T15:50:02.299Z,100318.63
2022-09-02T15:52:42.784Z,100328.44
2022-09-02T15:55:29.712Z,100332.69
2022-09-02T15:58:16.309Z,100331.50
2022-09-02T16:01:03.337Z,100339.28
2022-09-02T16:03:50.310Z,100356.66
2022-09-02T16:06:38.367Z,100371.50
2022-09-02T16:09:19.698Z,100365.06
2022-09-02T16:12:08.299Z,100383.41
2022-09-02T16:14:57.270Z,100396.84
2022-09-02T16:17:44.274Z,100403.25
2022-09-02T16:20:32.285Z,100393.56
2022-09-02T16:23:12.414Z,100395.59
2022-09-02T16:26:18.252Z,100387.59
2022-09-02T16:29:07.286Z,100388.31
2022-09-02T16:32:02.381Z,100378.31
2022-09-02T16:34:56.282Z,100375.88
2022-09-02T16:37:36.694Z,100381.91
2022-09-02T16:40:28.277Z,100370.56
2022-09-02T16:43:08.712Z,100350.91
2022-09-02T16:45:55.271Z,100341.75
2022-09-02T16:48:42.380Z,100341.78
2022-09-02T16:51:23.242Z,100348.22
2022-09-02T16:54:05.278Z,100355.88
2022-09-02T16:56:52.225Z,100345.56
2022-09-02T16:59:39.223Z,100348.03
2022-09-02T17:02:19.415Z,100355.75
2022-09-02T17:07:46.850Z,100358.28
2022-09-02T17:10:33.244Z,100361.88
2022-09-02T17:13:13.296Z,100369.50
2022-09-02T17:16:00.234Z,100375.94
2022-09-02T17:18:47.214Z,100378.72
2022-09-02T17:21:30.134Z,100385.53
2022-09-02T17:24:19.237Z,100391.97
2022-09-02T17:27:13.257Z,100396.81
2022-09-02T17:29:54.687Z,100412.47
2022-09-02T17:32:41.208Z,100420.47
2022-09-02T17:35:28.226Z,100414.84
2022-09-02T17:38:15.182Z,100424.88
2022-09-02T17:41:21.199Z,100415.16
2022-09-02T17:44:01.589Z,100419.91
2022-09-02T17:46:49.191Z,100431.53
2022-09-02T17:49:36.193Z,100421.41
2022-09-02T17:52:23.955Z,100422.22
2022-09-02T17:55:11.203Z,100417.78
2022-09-02T17:58:20.403Z,100420.16
2022-09-02T18:01:10.226Z,100443.47
2022-09-02T18:04:45.335Z,100447.56
2022-09-02T18:08:09.176Z,100475.97
2022-09-02T18:10:58.712Z,100489.34
2022-09-02T18:13:55.197Z,100493.81
2022-09-02T18:17:10.204Z,100474.09
2022-09-02T18:20:12.197Z,100469.72
2022-09-02T18:23:20.486Z,100469.31
2022-09-02T18:26:31.171Z,100464.09
2022-09-02T18:29:27.190Z,100464.50
2022-09-02T18:32:23.139Z,100450.44
2022-09-02T18:35:24.828Z,100454.88
2022-09-02T18:38:14.174Z,100446.41
2022-09-02T18:41:06.145Z,100428.75
2022-09-02T18:44:23.234Z,100422.34
2022-09-02T18:47:15.131Z,100412.72
2022-09-02T18:49:57.211Z,100415.13
2022-09-02T18:52:45.134Z,100410.31
2022-09-02T18:55:33.119Z,100407.09
2022-09-02T18:58:39.217Z,100413.13
2022-09-02T19:01:32.253Z,100404.28
2022-09-02T19:04:19.105Z,100414.72
2022-09-02T19:07:19.184Z,100406.28
2022-09-02T19:10:08.073Z,100401.47
2022-09-02T19:12:48.257Z,100400.25
2022-09-02T19:15:35.893Z,100402.22
2022-09-02T19:18:24.279Z,100402.25
2022-09-02T19:21:11.125Z,100406.25
2022-09-02T19:23:53.265Z,100409.03
2022-09-02T19:26:40.091Z,100403.78
2022-09-02T19:29:24.431Z,100392.50
2022-09-02T19:32:05.167Z,100396.13
2022-09-02T19:34:45.912Z,100399.69
2022-09-02T19:37:33.067Z,100404.88
2022-09-02T19:40:25.077Z,100408.09
2022-09-02T19:43:16.050Z,100403.16
2022-09-02T19:46:03.186Z,100382.66
2022-09-02T19:48:44.286Z,100372.97
2022-09-02T19:51:34.053Z,100383.03
2022-09-02T19:54:14.162Z,100390.28
2022-09-02T19:57:01.069Z,100387.47
2022-09-02T19:59:48.063Z,100392.31
2022-09-02T20:02:28.520Z,100392.31
2022-09-02T20:05:15.065Z,100382.75
2022-09-02T20:08:03.040Z,100383.75
2022-09-02T20:10:45.952Z,100387.00
2022-09-02T20:13:40.062Z,100381.81
2022-09-02T20:16:25.275Z,100387.41
2022-09-02T20:19:12.050Z,100387.81
2022-09-02T20:21:53.179Z,100383.38
2022-09-02T20:24:41.045Z,100378.16
2022-09-02T20:28:11.040Z,100385.78
2022-09-02T20:31:15.084Z,100395.81
2022-09-02T20:34:24.037Z,100411.03
2022-09-02T20:37:13.369Z,100405.84
2022-09-02T20:40:15.010Z,100410.28
2022-09-02T20:43:23.177Z,100409.47
2022-09-02T20:46:29.027Z,100396.22
2022-09-02T20:49:36.017Z,100389.00
2022-09-02T20:52:37.994Z,100391.00
2022-09-02T20:55:24.245Z,100395.81
2022-09-02T20:58:34.990Z,100397.44
2022-09-02T21:01:31.030Z,100390.22
2022-09-02T21:04:33.081Z,100406.28
2022-09-02T21:07:49.032Z,100415.13
2022-09-02T21:10:36.078Z,100416.72
2022-09-02T21:13:53.966Z,100418.75
2022-09-02T21:16:43.145Z,100404.69
2022-09-02T21:19:37.967Z,100393.44
2022-09-02T21:22:37.012Z,100396.25
2022-09-02T21:25:27.613Z,100394.25
2022-09-02T21:28:29.969Z,100392.66
2022-09-02T21:31:43.020Z,100381.00
2022-09-02T21:34:43.118Z,100364.09
2022-09-02T21:37:29.978Z,100355.25
2022-09-02T21:40:15.105Z,100344.38
2022-09-02T21:43:23.983Z,100348.81
2022-09-02T21:46:20.940Z,100330.31
2022-09-02T21:49:37.929Z,100323.88
2022-09-02T21:53:09.917Z,100329.94
2022-09-02T21:55:56.056Z,100327.53
2022-09-02T21:58:57.938Z,100324.31
2022-09-02T22:01:44.441Z,100328.31
2022-09-02T22:05:15.934Z,100324.28
2022-09-02T22:08:06.937Z,100326.28
2022-09-02T22:11:32.910Z,100327.06
2022-09-02T22:14:29.018Z,100330.28
2022-09-02T22:17:14.907Z,100327.84
2022-09-02T22:20:05.906Z,100321.38
2022-09-02T22:23:02.905Z,100326.56
2022-09-02T22:25:43.345Z,100327.75
2022-09-02T22:28:41.910Z,100334.13
2022-09-02T22:31:26.159Z,100338.03
2022-09-02T22:34:19.878Z,100334.75
2022-09-02T22:37:14.857Z,100341.50
2022-09-02T22:40:09.869Z,100348.34
2022-09-02T22:42:57.187Z,100354.78
2022-09-02T22:46:07.946Z,100351.97
2022-09-02T22:49:31.868Z,100356.25
2022-09-02T22:52:40.589Z,100345.88
2022-09-02T22:55:52.873Z,100339.38
2022-09-02T22:58:51.879Z,100326.44
2022-09-02T23:02:17.884Z,100311.13
2022-09-02T23:05:16.903Z,100307.91
2022-09-02T23:07:57.302Z,100309.56
2022-09-02T23:10:43.817Z,100311.53
2022-09-02T23:14:02.886Z,100318.78
2022-09-02T23:16:52.959Z,100325.94
2022-09-02T23:19:57.866Z,100326.41
2022-09-02T23:23:10.836Z,100312.38
2022-09-02T23:26:22.873Z,100305.66
2022-09-02T23:29:17.510Z,100294.53
2022-09-02T23:32:39.850Z,100290.97
2022-09-02T23:35:32.854Z,100285.34
2022-09-02T23:38:31.382Z,100288.63
2022-09-02T23:41:18.835Z,100291.75
2022-09-02T23:44:05.831Z,100282.44
2022-09-02T23:47:07.801Z,100268.00
2022-09-02T23:50:17.785Z,100271.22
2022-09-02T23:53:04.279Z,100272.47
2022-09-02T23:56:08.833Z,100277.41
2022-09-02T23:59:05.841Z,100271.78
